Time;durP1;ratioP1;P1;durP2;ratioP2;P2;SDS_P1;SDS_P2;PMS_P1;PMS_P2;Temp;Humidity;BMP_temperature;BMP_pressure;BME280_temperature;BME280_humidity;BME280_pressure;Samples;Min_cycle;Max_cycle;Signal;HPM_P1;HPM_P2
2024/01/24 00:02:37;;;;;;;14.18;4.32;;;;;;;;;;4806107;24;20111;-94
2024/01/24 00:05:54;;;;;;;13.37;4.57;;;10.90;99.90;;;;;;4793702;24;20059;-93
2024/01/24 00:08:47;;;;;;;11.65;4.25;;;;;;;;;;4823845;24;20124;-94
2024/01/24 00:11:25;;;;;;;9.43;3.10;;;;;;;;;;4787521;30;20142;-94
2024/01/24 00:13:52;;;;;;;17.50;4.47;;;;;;;;;;4786765;30;20051;-94
2024/01/24 00:16:22;;;;;;;8.88;4.03;;;;;;;;;;4804049;30;20058;-94
2024/01/24 00:19:07;;;;;;;10.52;4.22;;;;;;;;;;4792040;30;20050;-94
2024/01/24 00:21:53;;;;;;;18.27;3.95;;;;;;;;;;4774133;30;20067;-95
2024/01/24 00:24:27;;;;;;;14.45;5.38;;;;;;;;;;4809049;24;20509;-95
2024/01/24 00:26:54;;;;;;;12.07;4.07;;;;;;;;;;4759382;30;20055;-95
2024/01/24 00:29:22;;;;;;;13.30;5.18;;;;;;;;;;4759004;30;20062;-95
2024/01/24 00:31:57;;;;;;;14.50;3.97;;;;;;;;;;4775538;30;20055;-96
2024/01/24 00:37:13;;;;;;;18.52;4.53;;;;;;;;;;4806756;29;20059;-94
2024/01/24 00:39:53;;;;;;;19.23;5.32;;;;;;;;;;4807992;29;20483;-95
2024/01/24 00:42:19;;;;;;;21.17;4.10;;;;;;;;;;4792970;29;20271;-95
2024/01/24 00:45:05;;;;;;;7.80;3.10;;;;;;;;;;4808165;29;20158;-94
2024/01/24 00:47:45;;;;;;;18.83;5.85;;;;;;;;;;4793893;29;20051;-95
2024/01/24 00:50:21;;;;;;;17.83;4.32;;;;;;;;;;4788192;30;20093;-94
2024/01/24 00:52:52;;;;;;;21.40;3.90;;;;;;;;;;4759361;30;20075;-96
2024/01/24 00:55:26;;;;;;;11.02;3.67;;;;;;;;;;4775258;30;20051;-95
2024/01/24 00:57:52;;;;;;;11.45;3.20;;;;;;;;;;4759465;30;20051;-95
2024/01/24 01:00:19;;;;;;;16.30;3.75;;;;;;;;;;4772709;30;20105;-94
2024/01/24 01:02:57;;;;;;;12.40;3.58;;;;;;;;;;4772687;30;20055;-95
2024/01/24 01:05:25;;;;;;;12.90;4.80;;;;;;;;;;4771560;30;20055;-94
2024/01/24 01:08:00;;;;;;;18.50;4.43;;;;;;;;;;4772738;30;20112;-96
2024/01/24 01:10:27;;;;;;;14.82;3.88;;;;;;;;;;4773881;29;20066;-94
2024/01/24 01:13:03;;;;;;;13.52;4.13;;;;;;;;;;4790415;29;20722;-95
2024/01/24 01:15:31;;;;;;;17.92;3.95;;;;;;;;;;4766225;24;20059;-94
2024/01/24 01:18:12;;;;;;;10.00;3.03;;;;;;;;;;4780824;24;20063;-94
2024/01/24 01:23:14;;;;;;;6.63;3.78;;;;;;;;;;4787078;29;20081;-95
2024/01/24 01:25:46;;;;;;;14.30;4.20;;;;;;;;;;4798576;24;20069;-94
2024/01/24 01:28:28;;;;;;;14.77;4.45;;;;;;;;;;4773036;30;20421;-93
2024/01/24 01:31:00;;;;;;;11.90;4.90;;;;;;;;;;4750980;30;20181;-94
2024/01/24 01:33:30;;;;;;;17.20;3.53;;;;;;;;;;4722247;30;20062;-95
2024/01/24 01:35:56;;;;;;;11.52;3.22;;;;;;;;;;4721820;30;20052;-94
2024/01/24 01:38:26;;;;;;;11.55;3.50;;;;;;;;;;4736593;30;20507;-93
2024/01/24 01:41:01;;;;;;;12.63;3.45;;;;;;;;;;4722329;30;20576;-96
2024/01/24 01:43:28;;;;;;;9.60;3.28;;;;;;;;;;4724802;30;20048;-95
2024/01/24 01:45:59;;;;;;;9.35;2.90;;;;;;;;;;4723722;30;20060;-94
2024/01/24 01:49:02;;;;;;;19.48;4.68;;;;;;;;;;4748179;24;20100;-96
2024/01/24 01:51:29;;;;;;;10.60;3.80;;;;;;;;;;4748255;30;20056;-95
2024/01/24 01:54:01;;;;;;;11.43;2.45;;;;;;;;;;4756422;30;20105;-95
2024/01/24 01:56:28;;;;;;;12.40;3.72;;;;;;;;;;4748600;30;20071;-94
2024/01/24 01:59:05;;;;;;;6.57;2.05;;;;;;;;;;4742051;30;20139;-95
2024/01/24 02:01:31;;;;;;;10.23;2.95;;;;;;;;;;4746608;30;20402;-94
2024/01/24 02:04:07;;;;;;;11.18;2.67;;;;;;;;;;4770694;30;20524;-95
2024/01/24 02:06:34;;;;;;;9.48;2.45;;;;;;;;;;4760885;30;20056;-94
2024/01/24 02:09:00;;;;;;;7.00;1.85;;;;;;;;;;4739949;30;20536;-95
2024/01/24 02:11:36;;;;;;;9.75;2.83;;;;;;;;;;4755752;30;20056;-94
2024/01/24 02:14:02;;;;;;;10.05;2.65;;;;;;;;;;4782807;29;20060;-94
2024/01/24 02:16:36;;;;;;;10.25;3.22;;;;;;;;;;4752389;30;20128;-94
2024/01/24 02:19:02;;;;;;;12.55;2.83;;;;;;;;;;4754586;30;20151;-94
2024/01/24 02:21:31;;;;;;;9.27;1.92;;;;;;;;;;4754913;30;20056;-94
2024/01/24 02:23:59;;;;;;;10.02;2.75;;;;;;;;;;4739721;30;20151;-92
2024/01/24 02:26:25;;;;;;;6.38;3.30;;;;;;;;;;4739146;30;20056;-93
2024/01/24 02:28:52;;;;;;;9.23;2.88;;;;;;;;;;4712871;30;20067;-93
2024/01/24 02:31:19;;;;;;;10.05;4.70;;;;;;;;;;4717381;30;20049;-94
2024/01/24 02:33:45;;;;;;;8.23;2.40;;;;;;;;;;4723361;30;20064;-94
2024/01/24 02:36:15;;;;;;;11.93;2.60;;;;;;;;;;4723019;30;20055;-93
2024/01/24 02:38:43;;;;;;;7.43;2.55;;;;;;;;;;4722642;30;20064;-92
2024/01/24 02:41:10;;;;;;;9.98;2.50;;;;;;;;;;4722467;30;20056;-92
2024/01/24 02:43:36;;;;;;;11.20;3.67;;;;;;;;;;4722248;30;20183;-93
2024/01/24 02:46:03;;;;;;;13.77;2.90;;;;;;;;;;4721992;30;20056;-93
2024/01/24 02:48:35;;;;;;;10.70;3.17;;;;;;;;;;4766533;24;20068;-93
2024/01/24 02:51:03;;;;;;;15.77;4.03;;;;;;;;;;4764774;30;20051;-91
2024/01/24 02:53:34;;;;;;;15.93;3.03;;;;;;;;;;4731900;30;20055;-92
2024/01/24 02:58:37;;;;;;;14.15;3.55;;;;;;;;;;4850849;24;20083;-93
2024/01/24 03:01:05;;;;;;;;;;;11.30;99.90;;;;;;4801060;24;20059;-94
2024/01/24 03:03:59;;;;;;;11.25;3.20;;;;;;;;;;4790925;30;19955;-92
2024/01/24 03:06:26;;;;;;;16.27;4.35;;;;;;;;;;4774589;24;20059;-94
2024/01/24 03:08:56;;;;;;;16.85;2.95;;;;;;;;;;4775259;30;20059;-93
2024/01/24 03:11:24;;;;;;;16.52;3.17;;;;;;;;;;4775069;30;20051;-93
2024/01/24 03:14:01;;;;;;;12.38;3.47;;;;;;;;;;4762195;30;20502;-93
2024/01/24 03:16:46;;;;;;;12.80;3.40;;;;;;;;;;4774820;30;20131;-93
2024/01/24 03:19:18;;;;;;;10.25;3.15;;;;;;;;;;4775528;29;20076;-94
2024/01/24 03:21:46;;;;;;;13.73;4.00;;;;;;;;;;4813784;24;20409;-92
2024/01/24 03:24:31;;;;;;;19.48;3.13;;;;;;;;;;4786766;23;20063;-93
2024/01/24 03:27:08;;;;;;;12.63;4.63;;;;;;;;;;4772590;30;20073;-93
2024/01/24 03:29:51;;;;;;;17.05;4.07;;;;;;;;;;4819841;24;20116;-93
2024/01/24 03:32:19;;;;;;;12.82;3.70;;;;;;;;;;4793222;29;20055;-93
2024/01/24 03:35:10;;;;;;;19.67;5.30;;;11.00;99.90;;;;;;4811260;24;20075;-94
2024/01/24 03:38:11;;;;;;;18.73;5.10;;;;;;;;;;4804986;24;20049;-94
2024/01/24 03:40:40;;;;;;;17.33;4.28;;;;;;;;;;4809909;29;20083;-94
2024/01/24 03:43:06;;;;;;;15.32;4.10;;;;;;;;;;4795917;29;20059;-95
2024/01/24 03:45:35;;;;;;;15.50;4.38;;;;;;;;;;4824488;29;20062;-94
2024/01/24 03:48:21;;;;;;;12.82;4.07;;;;;;;;;;4825583;29;20086;-93
2024/01/24 03:50:57;;;;;;;12.52;4.85;;;;;;;;;;4821189;29;20586;-93
2024/01/24 03:53:27;;;;;;;19.00;4.72;;;;;;;;;;4790837;29;20064;-94
2024/01/24 03:55:59;;;;;;;16.98;4.30;;;;;;;;;;4774135;30;20085;-93
2024/01/24 03:59:19;;;;;;;16.90;4.03;;;10.90;99.90;;;;;;4730144;30;20115;-93
2024/01/24 04:01:48;;;;;;;23.33;4.97;;;;;;;;;;4790618;24;20083;-94
2024/01/24 04:04:35;;;;;;;13.65;4.28;;;;;;;;;;4737603;30;20052;-92
2024/01/24 04:07:15;;;;;;;13.73;4.13;;;;;;;;;;4739597;30;20127;-93
2024/01/24 04:09:54;;;;;;;12.90;3.67;;;;;;;;;;4687888;30;20068;-93
2024/01/24 04:15:17;;;;;;;15.73;4.60;;;;;;;;;;4716875;30;20420;-95
2024/01/24 04:17:53;;;;;;;9.45;3.92;;;;;;;;;;4712945;24;20154;-93
2024/01/24 04:20:32;;;;;;;21.42;5.63;;;;;;;;;;4771008;30;20124;-94
2024/01/24 04:22:58;;;;;;;18.63;5.75;;;;;;;;;;4744044;30;20047;-93
2024/01/24 04:25:29;;;;;;;23.67;5.68;;;;;;;;;;4785021;30;20051;-95
2024/01/24 04:28:02;;;;;;;10.45;4.53;;;;;;;;;;4757673;30;20059;-93
2024/01/24 04:30:28;;;;;;;25.80;5.05;;;;;;;;;;4747625;30;20050;-95
2024/01/24 04:32:54;;;;;;;21.27;4.13;;;;;;;;;;4754691;30;20115;-95
2024/01/24 04:35:24;;;;;;;16.23;4.43;;;;;;;;;;4778243;30;20055;-94
2024/01/24 04:37:52;;;;;;;21.85;6.15;;;;;;;;;;4735651;30;20150;-94
2024/01/24 04:40:18;;;;;;;19.65;5.22;;;;;;;;;;4734930;30;20059;-94
2024/01/24 04:42:46;;;;;;;15.40;5.43;;;;;;;;;;4749591;30;20067;-93
2024/01/24 04:53:10;;;;;;;30.70;7.13;;;;;;;;;;4794626;30;20084;-94
2024/01/24 04:55:36;;;;;;;36.30;6.28;;;;;;;;;;4782046;30;20108;-94
2024/01/24 04:58:03;;;;;;;21.15;5.35;;;;;;;;;;4798711;24;20083;-96
2024/01/24 05:00:29;;;;;;;24.98;5.53;;;;;;;;;;4814669;29;20152;-95
2024/01/24 05:03:01;;;;;;;20.60;5.80;;;;;;;;;;4785872;29;20083;-96
2024/01/24 05:05:29;;;;;;;16.85;4.88;;;;;;;;;;4823395;29;20057;-93
2024/01/24 05:07:56;;;;;;;19.98;6.80;;;;;;;;;;4779006;29;20042;-93
2024/01/24 05:10:22;;;;;;;19.83;4.90;;;;;;;;;;4808673;29;20058;-93
2024/01/24 05:12:49;;;;;;;23.50;7.13;;;;;;;;;;4821625;29;20054;-92
2024/01/24 05:15:16;;;;;;;15.48;5.60;;;;;;;;;;4792006;29;20103;-93
2024/01/24 05:17:55;;;;;;;28.92;8.60;;;;;;;;;;4831870;24;20050;-93
2024/01/24 05:20:41;;;;;;;37.15;7.53;;;;;;;;;;4783717;24;20521;-93
2024/01/24 05:23:42;;;;;;;26.13;7.55;;;;;;;;;;4810630;24;20126;-93
2024/01/24 05:26:12;;;;;;;31.92;7.30;;;;;;;;;;4772401;30;20505;-93
2024/01/24 05:28:41;;;;;;;35.85;7.55;;;;;;;;;;4773278;30;20051;-93
2024/01/24 05:31:07;;;;;;;26.83;7.45;;;;;;;;;;4757435;30;20489;-94
2024/01/24 05:33:35;;;;;;;44.22;7.05;;;;;;;;;;4768954;24;20506;-95
2024/01/24 05:36:02;;;;;;;31.75;7.68;;;;;;;;;;4797470;24;20059;-94
2024/01/24 05:38:33;;;;;;;27.90;7.10;;;;;;;;;;4853431;24;20058;-92
2024/01/24 05:40:59;;;;;;;32.65;9.63;;;;;;;;;;4790456;29;20047;-94
2024/01/24 05:43:27;;;;;;;26.05;6.50;;;;;;;;;;4794243;29;20072;-94
2024/01/24 05:45:53;;;;;;;25.95;7.40;;;;;;;;;;4807968;24;20082;-94
2024/01/24 05:48:27;;;;;;;34.80;8.15;;;;;;;;;;4741094;30;20082;-93
2024/01/24 05:50:55;;;;;;;36.70;8.63;;;;;;;;;;4769062;30;20571;-93
2024/01/24 05:53:24;;;;;;;22.33;7.10;;;;;;;;;;4769380;30;20433;-94
2024/01/24 05:56:06;;;;;;;42.50;9.98;;;;;;;;;;4799676;24;20118;-96
2024/01/24 05:58:49;;;;;;;30.95;8.80;;;;;;;;;;4798015;24;20175;-95
2024/01/24 06:01:29;;;;;;;34.92;8.82;;;;;;;;;;4782648;24;20128;-94
2024/01/24 06:04:17;;;;;;;30.45;7.80;;;;;;;;;;4856357;24;20025;-92
2024/01/24 06:07:30;;;;;;;35.92;6.38;;;;;;;;;;4796399;29;20053;-94
2024/01/24 06:09:57;;;;;;;25.48;5.22;;;;;;;;;;4776533;29;20054;-94
2024/01/24 09:33:23;;;;;;;32.38;9.70;;;;;;;;;;5829187;24;20442;-93
2024/01/24 13:09:06;;;;;;;17.75;5.70;;;;;;;;;;5034842;24;20054;-95
2024/01/24 13:11:44;;;;;;;20.27;5.93;;;;;;;;;;4783131;29;20059;-95
2024/01/24 13:14:15;;;;;;;20.17;6.15;;;;;;;;;;4768674;29;20080;-96
2024/01/24 13:16:48;;;;;;;26.98;6.57;;;;;;;;;;4769593;29;20451;-96
2024/01/24 13:19:16;;;;;;;22.48;6.90;;;;;;;;;;4781149;29;20505;-94
2024/01/24 13:21:43;;;;;;;20.20;6.03;;;;;;;;;;4779329;29;20051;-94
2024/01/24 13:24:09;;;;;;;34.80;6.57;;;;;;;;;;4762186;30;20058;-96
2024/01/24 13:26:35;;;;;;;38.30;8.35;;;;;;;;;;4763372;30;20090;-93
2024/01/24 13:29:01;;;;;;;26.90;6.07;;;;;;;;;;4763633;29;20047;-94
2024/01/24 13:31:28;;;;;;;35.47;6.88;;;;;;;;;;4761634;30;20051;-93
2024/01/24 13:33:54;;;;;;;32.53;6.40;;;;;;;;;;4747627;29;20061;-94
2024/01/24 13:36:21;;;;;;;33.33;6.65;;;;;;;;;;4777461;29;20059;-92
2024/01/24 13:38:48;;;;;;;23.08;6.60;;;;;;;;;;4763266;30;20043;-92
2024/01/24 13:41:14;;;;;;;21.80;7.45;;;;;;;;;;4761965;30;20181;-92
2024/01/24 13:43:40;;;;;;;22.30;6.63;;;;;;;;;;4761939;30;20092;-94
2024/01/24 13:46:08;;;;;;;22.17;5.85;;;;;;;;;;4745854;29;20142;-93
2024/01/24 13:48:34;;;;;;;22.35;6.97;;;;;;;;;;4761449;30;20061;-93
2024/01/24 13:51:00;;;;;;;22.48;6.88;;;;;;;;;;4763369;30;20392;-93
2024/01/24 13:53:26;;;;;;;28.88;5.97;;;;;;;;;;4745455;30;20055;-94
2024/01/24 13:55:52;;;;;;;27.70;6.80;;;;;;;;;;4748494;30;20501;-93
2024/01/24 13:58:19;;;;;;;25.05;5.65;;;;;;;;;;4760847;30;20047;-92
2024/01/24 14:00:46;;;;;;;27.63;6.32;;;;;;;;;;4761730;30;20059;-94
2024/01/24 14:03:12;;;;;;;25.98;6.28;;;;;;;;;;4762070;30;20047;-93
2024/01/24 14:05:38;;;;;;;32.75;7.35;;;;;;;;;;4751329;29;20047;-93
2024/01/24 14:08:05;;;;;;;30.85;7.47;;;;;;;;;;4762213;30;20066;-96
2024/01/24 14:10:31;;;;;;;28.83;8.18;;;;;;;;;;4764966;30;20138;-93
2024/01/24 14:12:57;;;;;;;25.95;7.00;;;;;;;;;;4765529;29;20051;-92
2024/01/24 14:15:23;;;;;;;28.60;6.40;;;;;;;;;;4749909;29;20055;-94
2024/01/24 14:17:49;;;;;;;29.63;6.25;;;;;;;;;;4764359;30;20260;-93
2024/01/24 14:20:18;;;;;;;26.70;8.32;;;;;;;;;;4766399;29;20565;-94
2024/01/24 14:22:44;;;;;;;35.00;7.15;;;;;;;;;;4768094;30;20126;-95
2024/01/24 14:25:10;;;;;;;18.88;5.85;;;;;;;;;;4770155;30;20048;-96
2024/01/24 14:27:37;;;;;;;29.50;8.98;;;;;;;;;;4786066;29;20056;-94
2024/01/24 14:30:06;;;;;;;28.63;6.55;;;;;;;;;;4769842;30;20047;-95
2024/01/24 14:32:33;;;;;;;30.50;7.07;;;;;;;;;;4769188;29;20075;-94
2024/01/24 14:34:59;;;;;;;29.83;6.72;;;;;;;;;;4772203;30;20075;-94
2024/01/24 14:37:26;;;;;;;30.42;7.13;;;;;;;;;;4768959;30;20051;-95
2024/01/24 14:39:52;;;;;;;28.15;6.88;;;;;;;;;;4779849;29;20047;-94
2024/01/24 14:42:18;;;;;;;27.55;6.55;;;;;;;;;;4752226;29;20047;-93
2024/01/24 14:44:46;;;;;;;24.63;4.78;;;;;;;;;;4771212;30;20063;-93
2024/01/24 14:47:12;;;;;;;37.85;6.88;;;;;;;;;;4772235;30;20043;-95
2024/01/24 14:49:38;;;;;;;21.83;5.97;;;;;;;;;;4765878;30;20058;-96
2024/01/24 14:52:05;;;;;;;30.92;6.25;;;;;;;;;;4765517;30;20528;-94
2024/01/24 14:54:31;;;;;;;42.67;6.65;;;;;;;;;;4747779;30;20044;-95
2024/01/24 14:56:57;;;;;;;34.35;7.50;;;;;;;;;;4762349;30;20055;-94
2024/01/24 14:59:23;;;;;;;31.55;7.40;;;;;;;;;;4758885;29;20086;-96
2024/01/24 15:01:51;;;;;;;25.25;7.32;;;;;;;;;;4764457;29;20074;-94
2024/01/24 15:04:17;;;;;;;28.35;5.95;;;;;;;;;;4762019;30;20058;-95
2024/01/24 15:06:43;;;;;;;42.45;8.35;;;;;;;;;;4766670;29;20098;-96
2024/01/24 15:09:10;;;;;;;39.78;6.47;;;;;;;;;;4764707;30;20059;-96
2024/01/24 15:11:36;;;;;;;21.33;6.20;;;;;;;;;;4767475;30;20051;-94
2024/01/24 15:14:03;;;;;;;34.08;7.82;;;;;;;;;;4765372;29;20066;-96
2024/01/24 15:16:29;;;;;;;21.13;5.53;;;;;;;;;;4753954;30;20520;-94
2024/01/24 15:18:55;;;;;;;22.17;7.40;;;;;;;;;;4769471;29;20054;-94
2024/01/24 15:21:21;;;;;;;36.33;8.20;;;;;;;;;;4766265;29;20100;-93
2024/01/24 15:23:48;;;;;;;29.35;5.97;;;;;;;;;;4769980;30;20062;-94
2024/01/24 15:26:14;;;;;;;27.63;6.00;;;;;;;;;;4769453;29;20050;-93
2024/01/24 15:28:41;;;;;;;31.70;7.38;;;;;;;;;;4764654;30;20501;-92
2024/01/24 15:31:07;;;;;;;20.75;6.85;;;;;;;;;;4764965;30;20059;-93
2024/01/24 15:33:33;;;;;;;22.88;7.00;;;;;;;;;;4767559;30;20046;-91
2024/01/24 15:36:00;;;;;;;14.05;5.40;;;;;;;;;;4751418;30;20170;-94
2024/01/24 15:38:36;;;;;;;21.60;7.45;;;;;;;;;;4767103;30;20108;-96
2024/01/24 15:41:13;;;;;;;28.35;9.02;;;;;;;;;;4766317;30;20398;-95
2024/01/24 15:43:41;;;;;;;23.58;6.38;;;;;;;;;;4766300;30;20500;-95
2024/01/24 15:46:08;;;;;;;33.88;7.28;;;;;;;;;;4750008;30;20055;-94
2024/01/24 15:48:34;;;;;;;27.95;8.13;;;;;;;;;;4763718;30;20138;-95
2024/01/24 15:51:00;;;;;;;47.60;9.75;;;;;;;;;;4750629;29;20513;-95
2024/01/24 15:53:36;;;;;;;30.00;8.00;;;;;;;;;;4767609;30;20051;-95
2024/01/24 15:56:04;;;;;;;36.58;9.07;;;;;;;;;;4765751;30;20047;-95
2024/01/24 15:58:31;;;;;;;16.52;6.03;;;;;;;;;;4766210;30;20039;-95
2024/01/24 16:00:57;;;;;;;28.60;6.88;;;;;;;;;;4764483;30;20051;-93
2024/01/24 16:03:24;;;;;;;27.27;6.88;;;;;;;;;;4749593;29;20055;-93
2024/01/24 16:05:50;;;;;;;35.13;6.47;;;;;;;;;;4764656;30;20485;-94
2024/01/24 16:08:17;;;;;;;28.80;8.13;;;;;;;;;;4768030;30;20598;-93
2024/01/24 16:10:43;;;;;;;27.98;7.55;;;;;;;;;;4763143;30;20501;-95
2024/01/24 16:13:09;;;;;;;28.73;7.57;;;;;;;;;;4764223;30;20139;-94
2024/01/24 16:15:36;;;;;;;27.13;6.93;;;;;;;;;;4765786;30;20107;-94
2024/01/24 16:18:02;;;;;;;34.42;8.40;;;;;;;;;;4763787;30;20686;-93
2024/01/24 16:20:28;;;;;;;31.63;7.35;;;;;;;;;;4765609;30;20142;-94
2024/01/24 16:22:57;;;;;;;25.23;7.72;;;;;;;;;;4764239;30;20051;-93
2024/01/24 16:25:23;;;;;;;31.70;8.35;;;;;;;;;;4764162;30;20039;-94
2024/01/24 16:27:50;;;;;;;36.63;8.95;;;;;;;;;;4764080;29;20505;-94
2024/01/24 16:30:16;;;;;;;33.90;7.65;;;;;;;;;;4763703;29;20043;-95
2024/01/24 16:32:43;;;;;;;32.28;7.75;;;;;;;;;;4763701;29;20105;-94
2024/01/24 16:35:11;;;;;;;28.08;7.28;;;;;;;;;;4764668;30;20047;-94
2024/01/24 16:37:37;;;;;;;30.38;7.07;;;;;;;;;;4779219;29;20162;-93
2024/01/24 16:40:04;;;;;;;37.13;8.13;;;;;;;;;;4780611;29;20462;-94
2024/01/24 16:42:30;;;;;;;29.73;6.70;;;;;;;;;;4764497;29;20135;-94
2024/01/24 16:44:57;;;;;;;22.05;5.15;;;;;;;;;;4764412;30;20047;-94
2024/01/24 16:47:24;;;;;;;32.80;8.35;;;;;;;;;;4764045;30;20391;-94
2024/01/24 16:49:50;;;;;;;28.15;6.28;;;;;;;;;;4766373;30;20070;-94
2024/01/24 16:52:16;;;;;;;34.97;7.22;;;;;;;;;;4778675;30;20425;-93
2024/01/24 16:54:42;;;;;;;16.55;5.35;;;;;;;;;;4778059;29;20043;-94
2024/01/24 16:57:08;;;;;;;45.00;7.80;;;;;;;;;;4750094;29;20104;-94
2024/01/24 16:59:34;;;;;;;40.25;6.32;;;;;;;;;;4763416;30;20553;-94
2024/01/24 17:02:01;;;;;;;26.60;5.70;;;;;;;;;;4771277;30;20088;-96
2024/01/24 17:04:28;;;;;;;37.45;6.72;;;;;;;;;;4788473;29;20058;-95
2024/01/24 17:06:54;;;;;;;33.75;6.88;;;;;;;;;;4774343;30;20177;-96
2024/01/24 17:09:24;;;;;;;27.58;7.10;;;;;;;;;;4774036;30;20536;-95
2024/01/24 17:11:50;;;;;;;34.30;5.13;;;;;;;;;;4775989;30;20055;-95
2024/01/24 17:14:16;;;;;;;32.97;6.88;;;;;;;;;;4775127;29;20065;-95
2024/01/24 17:16:42;;;;;;;27.25;7.22;;;;;;;;;;4768095;29;20066;-93
2024/01/24 17:19:08;;;;;;;33.28;7.45;;;;;;;;;;4767095;30;20528;-93
2024/01/24 17:21:34;;;;;;;30.90;8.23;;;;;;;;;;4766940;30;20055;-94
2024/01/24 17:24:01;;;;;;;34.88;7.13;;;;;;;;;;4766239;30;20050;-93
2024/01/24 17:26:27;;;;;;;29.10;6.32;;;;;;;;;;4763836;30;20051;-94
2024/01/24 17:31:32;;;;;;;25.27;7.35;;;;;;;;;;4889570;24;20051;-94
2024/01/24 17:33:59;;;;;;;21.88;6.40;;;;;;;;;;4746947;30;20081;-94
2024/01/24 17:36:25;;;;;;;35.60;7.47;;;;;;;;;;4757128;30;20056;-95
2024/01/24 17:38:51;;;;;;;40.65;7.22;;;;;;;;;;4750833;30;20050;-95
2024/01/24 17:41:17;;;;;;;34.47;8.23;;;;;;;;;;4759961;30;20127;-95
2024/01/24 17:43:44;;;;;;;32.20;8.88;;;;;;;;;;4758801;30;20164;-94
2024/01/24 17:46:12;;;;;;;25.05;6.97;;;;;;;;;;4738096;30;20122;-96
2024/01/24 17:48:39;;;;;;;23.50;7.03;;;;;;;;;;4760832;30;20069;-94
2024/01/24 17:51:07;;;;;;;28.65;8.98;;;;;;;;;;4760287;30;21220;-95
2024/01/24 17:53:34;;;;;;;32.85;7.90;;;;;;;;;;4756777;30;20047;-95
2024/01/24 17:56:00;;;;;;;32.50;7.63;;;;;;;;;;4759393;30;20055;-95
2024/01/24 17:58:26;;;;;;;27.73;7.35;;;;;;;;;;4757053;30;20413;-92
2024/01/24 18:00:52;;;;;;;34.88;8.05;;;;;;;;;;4745027;30;20077;-93
2024/01/24 18:03:18;;;;;;;34.65;6.72;;;;;;;;;;4752807;30;20051;-94
2024/01/24 18:05:45;;;;;;;31.00;8.88;;;;;;;;;;4762676;30;20095;-95
2024/01/24 18:08:11;;;;;;;19.60;6.30;;;;;;;;;;4747745;30;20051;-94
2024/01/24 18:10:37;;;;;;;27.90;6.93;;;;;;;;;;4762071;30;20044;-95
2024/01/24 18:13:03;;;;;;;26.88;6.95;;;;;;;;;;4728607;30;20059;-96
2024/01/24 18:15:31;;;;;;;25.58;7.78;;;;;;;;;;4755545;30;20044;-94
2024/01/24 18:17:59;;;;;;;31.55;8.93;;;;;;;;;;4746294;30;20498;-95
2024/01/24 18:20:32;;;;;;;21.98;5.38;;;;;;;;;;4757882;30;20083;-92
2024/01/24 18:23:01;;;;;;;32.97;7.05;;;;;;;;;;4745353;30;20102;-94
2024/01/24 18:25:28;;;;;;;37.13;8.27;;;;;;;;;;4715078;30;20052;-94
2024/01/24 18:27:56;;;;;;;30.77;6.50;;;;;;;;;;4728563;30;20052;-94
2024/01/24 18:30:22;;;;;;;38.35;6.63;;;;;;;;;;4716262;30;20503;-94
2024/01/24 18:32:49;;;;;;;25.17;6.20;;;;;;;;;;4714782;30;20097;-94
2024/01/24 18:35:15;;;;;;;42.00;6.78;;;;;;;;;;4700271;30;20507;-94
2024/01/24 18:37:41;;;;;;;28.05;7.07;;;;;;;;;;4715943;30;20072;-94
2024/01/24 18:40:09;;;;;;;28.80;7.10;;;;;;;;;;4716197;30;20446;-94
2024/01/24 18:42:36;;;;;;;31.58;6.10;;;;;;;;;;4713325;30;20505;-93
2024/01/24 18:45:02;;;;;;;33.33;7.07;;;;;;;;;;4704634;30;20044;-92
2024/01/24 18:47:28;;;;;;;32.22;6.90;;;;;;;;;;4699748;30;20522;-95
2024/01/24 18:49:58;;;;;;;29.88;6.38;;;;;;;;;;4712753;30;20078;-95
2024/01/24 18:52:24;;;;;;;30.90;7.15;;;;;;;;;;4715832;30;20056;-94
2024/01/24 18:54:50;;;;;;;32.50;6.72;;;;;;;;;;4715799;30;20056;-93
2024/01/24 18:57:17;;;;;;;38.20;8.88;;;;;;;;;;4704382;30;20618;-93
2024/01/24 18:59:43;;;;;;;33.75;8.05;;;;;;;;;;4717481;30;20082;-95
2024/01/24 19:02:09;;;;;;;32.75;7.25;;;;;;;;;;4704446;30;20044;-96
2024/01/24 19:04:35;;;;;;;29.30;8.00;;;;;;;;;;4719955;30;20064;-94
2024/01/24 19:07:01;;;;;;;29.52;7.28;;;;;;;;;;4720529;30;20443;-93
2024/01/24 19:09:27;;;;;;;24.65;6.03;;;;;;;;;;4718977;30;20056;-94
2024/01/24 19:11:53;;;;;;;38.25;9.13;;;;;;;;;;4722583;30;20044;-94
2024/01/24 19:14:19;;;;;;;32.92;9.23;;;;;;;;;;4717752;30;20182;-94
2024/01/24 19:16:46;;;;;;;25.92;6.25;;;;;;;;;;4737442;30;20537;-93
2024/01/24 19:19:13;;;;;;;25.08;5.30;;;;;;;;;;4712436;30;20052;-93
2024/01/24 19:21:42;;;;;;;24.52;6.80;;;;;;;;;;4734851;30;20055;-93
2024/01/24 19:24:08;;;;;;;38.70;7.68;;;;;;;;;;4727607;30;20039;-93
2024/01/24 19:26:38;;;;;;;28.85;7.38;;;;;;;;;;4734475;30;20052;-94
2024/01/24 21:23:26;;;;;;;33.03;7.07;;;;;;;;;;5119207;24;20051;-96
2024/01/24 21:25:55;;;;;;;19.20;5.45;;;;;;;;;;4761678;30;20083;-96
2024/01/24 21:28:27;;;;;;;20.30;4.55;;;;;;;;;;4745071;30;20155;-96
2024/01/24 21:34:12;;;;;;;31.52;5.93;;;;;;;;;;4792975;24;20050;-96
2024/01/24 21:36:41;;;;;;;26.85;6.53;;;;;;;;;;4770686;30;20055;-96
2024/01/24 21:39:12;;;;;;;23.67;6.15;;;;;;;;;;4774176;30;20063;-96
2024/01/24 21:41:41;;;;;;;26.35;6.00;;;;;;;;;;4770171;30;20062;-96
2024/01/24 21:44:10;;;;;;;29.42;6.97;;;;;;;;;;4759484;30;20656;-95
2024/01/24 21:46:42;;;;;;;28.17;6.10;;;;;;;;;;4757301;30;20058;-95
2024/01/24 21:49:10;;;;;;;22.30;5.07;;;;;;;;;;4762503;30;20087;-96
2024/01/24 21:51:44;;;;;;;36.15;7.05;;;;;;;;;;4739964;30;20108;-96
2024/01/24 21:54:26;;;;;;;25.92;4.75;;;;;;;;;;4757672;30;20056;-95
2024/01/24 21:57:12;;;;;;;28.42;7.03;;;;;;;;;;4741116;30;20119;-96
2024/01/24 21:59:44;;;;;;;36.38;6.97;;;;;;;;;;4738439;30;20044;-96
2024/01/24 22:02:14;;;;;;;25.90;6.38;;;;;;;;;;4755367;24;20106;-94
2024/01/24 22:07:40;;;;;;;24.27;6.72;;;;;;;;;;4813840;29;20057;-96
2024/01/24 22:10:19;;;;;;;19.20;6.90;;;;;;;;;;4804766;29;20050;-96
2024/01/24 22:12:57;;;;;;;33.45;6.70;;;;;;;;;;4788535;29;20050;-96
2024/01/24 22:15:23;;;;;;;19.30;6.97;;;;;;;;;;4781025;29;20066;-95
2024/01/24 22:17:49;;;;;;;26.40;5.90;;;;;;;;;;4794525;29;20043;-96
2024/01/24 22:20:18;;;;;;;33.25;8.43;;;;;;;;;;4792969;29;20102;-96
2024/01/24 22:22:44;;;;;;;39.40;7.85;;;;;;;;;;4775866;29;20047;-95
2024/01/24 22:25:11;;;;;;;27.23;5.68;;;;;;;;;;4788811;29;20047;-96
2024/01/24 22:27:37;;;;;;;18.23;6.10;;;;;;;;;;4773141;30;20081;-94
2024/01/24 22:30:06;;;;;;;34.17;6.05;;;;;;;;;;4772506;30;20051;-94
2024/01/24 22:32:33;;;;;;;24.38;6.97;;;;;;;;;;4772794;30;20497;-95
2024/01/24 22:35:00;;;;;;;33.50;7.40;;;;;;;;;;4775950;30;20130;-94
2024/01/24 22:37:27;;;;;;;33.97;7.18;;;;;;;;;;4775559;30;20055;-93
2024/01/24 22:39:53;;;;;;;35.60;7.45;;;;;;;;;;4775266;29;20490;-93
2024/01/24 22:42:19;;;;;;;24.67;6.07;;;;;;;;;;4783185;30;20058;-93
2024/01/24 22:44:45;;;;;;;21.52;6.50;;;;;;;;;;4746220;30;20051;-92
2024/01/24 22:47:11;;;;;;;22.42;6.05;;;;;;;;;;4778699;30;20055;-93
2024/01/24 22:49:39;;;;;;;33.95;7.88;;;;;;;;;;4775338;30;20508;-93
2024/01/24 22:52:05;;;;;;;26.70;7.07;;;;;;;;;;4775242;30;20047;-94
2024/01/24 22:54:31;;;;;;;51.53;7.05;;;;;;;;;;4777926;29;20532;-93
2024/01/24 22:56:57;;;;;;;26.85;6.60;;;;;;;;;;4765036;30;20062;-93
2024/01/24 22:59:23;;;;;;;30.33;6.43;;;;;;;;;;4748139;30;20069;-93
2024/01/24 23:01:49;;;;;;;22.25;7.28;;;;;;;;;;4761698;30;20459;-93
2024/01/24 23:04:15;;;;;;;21.25;5.63;;;;;;;;;;4749755;30;20425;-93
2024/01/24 23:06:42;;;;;;;44.15;6.38;;;;;;;;;;4775142;30;20059;-93
2024/01/24 23:09:08;;;;;;;33.15;6.55;;;;;;;;;;4775531;29;20425;-93
2024/01/24 23:11:34;;;;;;;29.13;6.03;;;;;;;;;;4775571;30;20082;-94
2024/01/24 23:14:00;;;;;;;23.20;5.63;;;;;;;;;;4763114;30;20166;-93
2024/01/24 23:16:26;;;;;;;35.08;8.30;;;;;;;;;;4760424;30;20047;-93
2024/01/24 23:18:54;;;;;;;28.00;6.63;;;;;;;;;;4774814;30;20047;-94
2024/01/24 23:21:20;;;;;;;23.33;7.25;;;;;;;;;;4789862;29;20054;-94
2024/01/24 23:23:46;;;;;;;26.48;6.22;;;;;;;;;;4775339;29;20507;-93
2024/01/24 23:26:13;;;;;;;25.90;6.20;;;;;;;;;;4775134;30;20126;-94
2024/01/24 23:28:39;;;;;;;31.70;7.25;;;;;;;;;;4774753;30;20051;-94
2024/01/24 23:31:05;;;;;;;24.27;5.22;;;;;;;;;;4774906;30;20046;-92
2024/01/24 23:33:33;;;;;;;18.65;5.95;;;;;;;;;;4774977;30;20138;-93
2024/01/24 23:35:59;;;;;;;20.38;5.35;;;;;;;;;;4774932;30;20055;-93
2024/01/24 23:38:25;;;;;;;28.20;5.53;;;;;;;;;;4774286;30;20062;-93
2024/01/24 23:40:51;;;;;;;27.15;5.72;;;;;;;;;;4775221;30;20047;-93
2024/01/24 23:43:17;;;;;;;27.85;6.97;;;;;;;;;;4773521;30;20047;-93
2024/01/24 23:45:44;;;;;;;22.00;5.93;;;;;;;;;;4774948;30;20104;-93
2024/01/24 23:48:15;;;;;;;26.75;6.50;;;;;;;;;;4775480;30;20047;-94
2024/01/24 23:50:41;;;;;;;24.48;4.93;;;;;;;;;;4774672;30;20054;-94
2024/01/24 23:53:07;;;;;;;27.67;6.22;;;;;;;;;;4774429;30;20047;-94
2024/01/24 23:55:34;;;;;;;31.52;6.97;;;;;;;;;;4774668;30;20059;-94
2024/01/24 23:58:00;;;;;;;15.52;5.10;;;;;;;;;;4745111;30;20051;-94
